Time;durP1;ratioP1;P1;durP2;ratioP2;P2;SDS_P1;SDS_P2;PMS_P1;PMS_P2;Temp;Humidity;BMP_temperature;BMP_pressure;BME280_temperature;BME280_humidity;BME280_pressure;Samples;Min_cycle;Max_cycle;Signal;HPM_P1;HPM_P2
2023/12/04 00:01:16;;;;;;;11.20;7.20;;;;;;;0.94;100.00;100327.76;109323;1253;65700;-56
2023/12/04 00:03:43;;;;;;;11.00;6.70;;;;;;;0.92;100.00;100332.72;109324;1253;71701;-61
2023/12/04 00:06:11;;;;;;;10.70;6.60;;;;;;;0.91;100.00;100344.42;109268;1254;59775;-57
2023/12/04 00:08:39;;;;;;;10.00;5.90;;;;;;;0.90;100.00;100360.27;109307;1253;60108;-55
2023/12/04 00:11:07;;;;;;;10.40;6.80;;;;;;;0.87;100.00;100368.89;109348;1253;74659;-56
2023/12/04 00:13:35;;;;;;;10.00;6.70;;;;;;;0.85;100.00;100372.33;109307;1253;66044;-56
2023/12/04 00:16:03;;;;;;;10.70;6.10;;;;;;;0.84;100.00;100378.55;109276;1253;72716;-61
2023/12/04 00:18:30;;;;;;;10.00;5.70;;;;;;;0.83;100.00;100376.85;109292;1253;60177;-55
2023/12/04 00:20:58;;;;;;;9.90;6.40;;;;;;;0.84;100.00;100380.09;109343;1253;58901;-57
2023/12/04 00:23:26;;;;;;;11.70;7.20;;;;;;;0.84;100.00;100386.24;109290;1253;74693;-57
2023/12/04 00:25:54;;;;;;;10.30;7.40;;;;;;;0.83;100.00;100387.17;109379;1252;65260;-55
2023/12/04 00:28:22;;;;;;;11.60;6.40;;;;;;;0.82;100.00;100388.05;109321;1252;70278;-58
2023/12/04 00:30:50;;;;;;;9.60;6.50;;;;;;;0.80;100.00;100384.01;109334;1252;60954;-55
2023/12/04 00:33:17;;;;;;;9.30;6.20;;;;;;;0.80;100.00;100379.70;109389;1253;59152;-55
2023/12/04 00:35:45;;;;;;;12.10;7.60;;;;;;;0.79;100.00;100381.45;109342;1254;73484;-56
2023/12/04 00:38:12;;;;;;;9.10;6.20;;;;;;;0.78;100.00;100376.21;109373;1252;65644;-55
2023/12/04 00:40:40;;;;;;;11.30;6.70;;;;;;;0.77;100.00;100363.02;109281;1254;73183;-56
2023/12/04 00:43:08;;;;;;;10.00;6.40;;;;;;;0.77;100.00;100356.48;109301;1253;60001;-56
2023/12/04 00:45:35;;;;;;;9.50;5.60;;;;;;;0.79;100.00;100350.73;109364;1252;60350;-56
2023/12/04 00:48:03;;;;;;;8.60;5.90;;;;;;;0.79;100.00;100356.45;109357;1253;73362;-57
2023/12/04 00:50:31;;;;;;;10.50;6.40;;;;;;;0.80;100.00;100357.63;109375;1253;67072;-61
2023/12/04 00:52:59;;;;;;;11.60;7.20;;;;;;;0.79;100.00;100359.53;109390;1254;73229;-56
2023/12/04 00:55:26;;;;;;;10.40;6.40;;;;;;;0.79;100.00;100366.04;109357;1254;59657;-56
2023/12/04 00:57:54;;;;;;;8.60;5.70;;;;;;;0.80;100.00;100359.15;109387;1252;60096;-58
2023/12/04 01:00:21;;;;;;;8.90;5.60;;;;;;;0.81;100.00;100357.56;109403;1253;73522;-56
2023/12/04 01:02:49;;;;;;;13.40;6.80;;;;;;;0.80;100.00;100370.64;109352;1254;65865;-56
2023/12/04 01:05:17;;;;;;;9.70;6.40;;;;;;;0.80;100.00;100379.16;109377;1253;72709;-56
2023/12/04 01:07:44;;;;;;;10.10;6.70;;;;;;;0.81;100.00;100381.30;109349;1252;59651;-56
2023/12/04 01:10:12;;;;;;;11.90;6.50;;;;;;;0.80;100.00;100386.71;109405;1253;60065;-56
2023/12/04 01:12:40;;;;;;;13.60;7.90;;;;;;;0.80;100.00;100381.91;109368;1253;74838;-60
2023/12/04 01:15:09;;;;;;;11.30;7.00;;;;;;;0.79;100.00;100392.59;109402;1252;66860;-56
2023/12/04 01:17:37;;;;;;;10.50;6.60;;;;;;;0.79;100.00;100413.45;109388;1252;72812;-56
2023/12/04 01:20:05;;;;;;;9.90;6.50;;;;;;;0.78;100.00;100420.85;109355;1253;60891;-57
2023/12/04 01:22:33;;;;;;;9.70;6.60;;;;;;;0.79;100.00;100420.48;109355;1252;60161;-62
2023/12/04 01:25:00;;;;;;;11.20;7.40;;;;;;;0.79;100.00;100435.71;109392;1253;74722;-56
2023/12/04 01:27:28;;;;;;;12.20;6.70;;;;;;;0.78;100.00;100425.83;109376;1257;67106;-58
2023/12/04 01:29:56;;;;;;;9.80;6.70;;;;;;;0.77;100.00;100419.58;109367;1253;70941;-58
2023/12/04 01:32:23;;;;;;;11.60;7.30;;;;;;;0.77;100.00;100434.29;109353;1254;60979;-55
2023/12/04 01:34:51;;;;;;;10.60;6.70;;;;;;;0.78;100.00;100436.48;109323;1254;60067;-56
2023/12/04 01:37:19;;;;;;;10.70;6.60;;;;;;;0.76;100.00;100445.02;109419;1252;74686;-57
2023/12/04 01:39:46;;;;;;;9.20;6.40;;;;;;;0.73;100.00;100450.48;109390;1253;66909;-55
2023/12/04 01:42:14;;;;;;;10.70;6.90;;;;;;;0.71;100.00;100452.50;109388;1253;70141;-55
2023/12/04 01:44:41;;;;;;;10.70;6.90;;;;;;;0.70;100.00;100462.16;109316;1253;59970;-59
2023/12/04 01:47:10;;;;;;;11.10;6.90;;;;;;;0.71;100.00;100473.19;109355;1254;59773;-58
2023/12/04 01:49:38;;;;;;;11.10;7.20;;;;;;;0.72;100.00;100464.78;109392;1253;73518;-58
2023/12/04 01:52:05;;;;;;;10.10;6.60;;;;;;;0.71;100.00;100449.30;109351;1254;66905;-56
2023/12/04 01:54:33;;;;;;;10.60;6.50;;;;;;;0.69;100.00;100425.15;109272;1253;72712;-56
2023/12/04 01:57:02;;;;;;;9.20;6.00;;;;;;;0.68;100.00;100429.15;109298;1252;60989;-56
2023/12/04 01:59:30;;;;;;;9.50;6.70;;;;;;;0.68;100.00;100446.06;109216;1253;60251;-56
2023/12/04 02:01:57;;;;;;;10.50;6.60;;;;;;;0.68;100.00;100451.39;109360;1253;74620;-58
2023/12/04 02:04:25;;;;;;;11.20;7.60;;;;;;;0.68;100.00;100452.23;109368;1253;65689;-56
2023/12/04 02:06:53;;;;;;;9.80;6.20;;;;;;;0.67;100.00;100460.50;109402;1252;72729;-56
2023/12/04 02:09:21;;;;;;;11.10;7.10;;;;;;;0.67;100.00;100453.64;109169;1252;59659;-56
2023/12/04 02:11:48;;;;;;;11.60;7.40;;;;;;;0.68;100.00;100445.23;109195;1257;60131;-56
2023/12/04 02:14:16;;;;;;;11.20;7.00;;;;;;;0.69;100.00;100449.10;109373;1252;73492;-56
2023/12/04 02:16:43;;;;;;;11.20;7.40;;;;;;;0.69;100.00;100447.54;109430;1253;65924;-55
2023/12/04 02:19:12;;;;;;;11.90;7.30;;;;;;;0.70;100.00;100437.88;109137;1254;72245;-56
2023/12/04 02:21:39;;;;;;;10.10;6.30;;;;;;;0.70;100.00;100436.98;109307;1253;61131;-57
2023/12/04 02:24:07;;;;;;;10.50;6.80;;;;;;;0.70;100.00;100440.46;109400;1254;60141;-57
2023/12/04 02:26:47;;;;;;;8.80;6.30;;;;;;;0.68;100.00;100451.90;109242;1254;73619;-58
2023/12/04 02:29:19;;;;;;;11.00;7.40;;;;;;;0.66;100.00;100450.35;109389;1253;65798;-58
2023/12/04 02:31:47;;;;;;;11.00;6.70;;;;;;;0.64;100.00;100441.23;109386;1254;72340;-55
2023/12/04 02:34:14;;;;;;;11.30;6.60;;;;;;;0.63;100.00;100441.01;109375;1254;59910;-55
2023/12/04 02:36:42;;;;;;;10.10;6.40;;;;;;;0.62;100.00;100432.67;109231;1254;59027;-55
2023/12/04 02:39:10;;;;;;;9.80;6.70;;;;;;;0.63;100.00;100440.65;109218;1254;74744;-59
2023/12/04 02:41:37;;;;;;;9.70;7.00;;;;;;;0.62;100.00;100449.25;109211;1253;65627;-56
2023/12/04 02:44:05;;;;;;;10.00;6.50;;;;;;;0.62;100.00;100459.70;109301;1254;72798;-55
2023/12/04 02:46:33;;;;;;;9.20;6.20;;;;;;;0.62;100.00;100472.67;109347;1253;58997;-55
2023/12/04 02:49:00;;;;;;;9.90;6.00;;;;;;;0.62;100.00;100469.59;109381;1253;60037;-55
2023/12/04 02:51:28;;;;;;;12.00;6.80;;;;;;;0.62;100.00;100453.71;109329;1254;74694;-56
2023/12/04 02:53:55;;;;;;;9.70;6.50;;;;;;;0.63;100.00;100452.28;109431;1252;66964;-56
2023/12/04 02:56:23;;;;;;;10.10;7.00;;;;;;;0.65;100.00;100467.54;109315;1252;72700;-56
2023/12/04 02:58:51;;;;;;;9.60;6.60;;;;;;;0.66;100.00;100478.58;109334;1254;59358;-55
2023/12/04 03:01:19;;;;;;;9.30;6.30;;;;;;;0.67;100.00;100501.08;109365;1253;60070;-56
2023/12/04 03:03:46;;;;;;;9.60;6.50;;;;;;;0.66;100.00;100511.58;109372;1254;73441;-55
2023/12/04 03:06:16;;;;;;;9.50;5.80;;;;;;;0.64;100.00;100515.44;109353;1253;65704;-57
2023/12/04 03:08:43;;;;;;;9.30;6.40;;;;;;;0.64;100.00;100507.98;109364;1254;72701;-55
2023/12/04 03:11:11;;;;;;;10.60;6.30;;;;;;;0.62;100.00;100497.97;109331;1253;59297;-56
2023/12/04 03:13:38;;;;;;;10.30;7.10;;;;;;;0.62;100.00;100487.05;109322;1253;59223;-55
2023/12/04 03:16:13;;;;;;;10.40;6.30;;;;;;;0.62;100.00;100479.58;109387;1253;74764;-55
2023/12/04 03:18:40;;;;;;;10.60;7.40;;;;;;;0.61;100.00;100469.52;109248;1252;66810;-55
2023/12/04 03:21:08;;;;;;;10.20;6.90;;;;;;;0.62;100.00;100470.45;109367;1254;72729;-55
2023/12/04 03:23:36;;;;;;;11.50;6.30;;;;;;;0.63;100.00;100492.92;109293;1252;60982;-56
2023/12/04 03:26:03;;;;;;;11.70;7.80;;;;;;;0.64;100.00;100468.13;109355;1254;60135;-56
2023/12/04 03:28:31;;;;;;;11.30;7.00;;;;;;;0.65;100.00;100487.00;109354;1252;74726;-56
2023/12/04 03:30:59;;;;;;;11.00;7.10;;;;;;;0.65;100.00;100511.11;109355;1252;66061;-56
2023/12/04 03:33:26;;;;;;;11.30;7.10;;;;;;;0.64;100.00;100520.78;109282;1253;71440;-57
2023/12/04 03:35:54;;;;;;;11.30;7.00;;;;;;;0.61;100.00;100501.30;109306;1254;60345;-56
2023/12/04 03:38:22;;;;;;;11.50;6.90;;;;;;;0.61;100.00;100495.19;109294;1253;58906;-55
2023/12/04 03:40:49;;;;;;;12.10;7.20;;;;;;;0.59;100.00;100475.96;109320;1254;73434;-55
2023/12/04 03:43:17;;;;;;;11.20;7.50;;;;;;;0.58;100.00;100494.20;109232;1253;66878;-55
2023/12/04 03:45:45;;;;;;;13.50;7.60;;;;;;;0.55;100.00;100505.58;109358;1253;71423;-60
2023/12/04 03:48:12;;;;;;;11.60;8.20;;;;;;;0.54;100.00;100507.84;109318;1254;59721;-56
2023/12/04 03:50:40;;;;;;;10.90;6.60;;;;;;;0.54;100.00;100514.86;109329;1252;60028;-55
2023/12/04 03:53:08;;;;;;;10.50;6.80;;;;;;;0.55;100.00;100519.77;109351;1252;74775;-55
2023/12/04 03:55:35;;;;;;;10.90;7.30;;;;;;;0.55;100.00;100524.64;109339;1253;65647;-56
2023/12/04 03:58:03;;;;;;;10.50;7.20;;;;;;;0.55;100.00;100531.58;109337;1253;73148;-56
2023/12/04 04:00:30;;;;;;;12.50;7.40;;;;;;;0.54;100.00;100541.19;109358;1252;60856;-56
2023/12/04 04:02:59;;;;;;;11.40;7.30;;;;;;;0.53;100.00;100545.70;109327;1252;59106;-55
2023/12/04 04:05:26;;;;;;;10.20;7.00;;;;;;;0.52;100.00;100538.10;109345;1254;74691;-56
2023/12/04 04:07:54;;;;;;;9.90;6.30;;;;;;;0.49;100.00;100557.41;109315;1254;65873;-56
2023/12/04 04:10:22;;;;;;;12.50;7.70;;;;;;;0.48;100.00;100555.98;109310;1253;71397;-56
2023/12/04 04:12:49;;;;;;;11.40;7.20;;;;;;;0.46;100.00;100559.36;109301;1253;59725;-55
2023/12/04 04:15:17;;;;;;;10.40;6.90;;;;;;;0.44;100.00;100553.84;109364;1254;58996;-57
2023/12/04 04:17:44;;;;;;;12.10;6.80;;;;;;;0.43;100.00;100541.11;109313;1254;73420;-60
2023/12/04 04:20:12;;;;;;;12.60;8.10;;;;;;;0.42;100.00;100553.16;109361;1254;67062;-56
2023/12/04 04:22:40;;;;;;;11.80;7.10;;;;;;;0.40;100.00;100571.43;109307;1254;72814;-56
2023/12/04 04:25:08;;;;;;;11.90;6.50;;;;;;;0.39;100.00;100579.01;109080;1255;60959;-56
2023/12/04 04:27:36;;;;;;;11.50;7.70;;;;;;;0.40;100.00;100561.88;109281;1254;59229;-56
2023/12/04 04:30:04;;;;;;;10.90;7.00;;;;;;;0.39;100.00;100565.73;109100;1254;73478;-60
2023/12/04 04:32:32;;;;;;;10.60;6.50;;;;;;;0.38;100.00;100565.79;109268;1255;67035;-56
2023/12/04 04:35:00;;;;;;;12.20;7.50;;;;;;;0.34;100.00;100559.39;109113;1255;72684;-56
2023/12/04 04:37:27;;;;;;;11.40;7.00;;;;;;;0.31;100.00;100563.54;109267;1254;60991;-56
2023/12/04 04:39:55;;;;;;;11.00;7.20;;;;;;;0.31;100.00;100586.64;109038;1254;58929;-60
2023/12/04 04:42:23;;;;;;;12.30;7.90;;;;;;;0.29;100.00;100586.70;109091;1254;74741;-56
2023/12/04 04:44:50;;;;;;;11.00;6.90;;;;;;;0.27;100.00;100585.16;109074;1256;66952;-56
2023/12/04 04:47:18;;;;;;;10.30;6.90;;;;;;;0.28;100.00;100604.64;109090;1256;72764;-55
2023/12/04 04:49:45;;;;;;;11.90;7.20;;;;;;;0.27;100.00;100606.69;109276;1254;59359;-55
2023/12/04 04:52:13;;;;;;;12.80;7.90;;;;;;;0.28;100.00;100602.23;109058;1254;60848;-55
2023/12/04 04:54:40;;;;;;;11.80;7.20;;;;;;;0.27;100.00;100607.23;109238;1255;74690;-56
2023/12/04 04:57:08;;;;;;;10.70;6.80;;;;;;;0.27;100.00;100601.10;109260;1255;67565;-56
2023/12/04 04:59:36;;;;;;;9.50;6.00;;;;;;;0.25;100.00;100608.23;109261;1254;71429;-55
2023/12/04 05:02:03;;;;;;;10.00;6.50;;;;;;;0.23;100.00;100607.63;109227;1255;59018;-58
2023/12/04 05:04:31;;;;;;;10.80;6.70;;;;;;;0.22;100.00;100613.85;109080;1255;60130;-56
2023/12/04 05:06:59;;;;;;;9.50;6.40;;;;;;;0.20;100.00;100613.00;109103;1254;74700;-56
2023/12/04 05:09:26;;;;;;;10.60;6.00;;;;;;;0.15;100.00;100618.15;109133;1258;67383;-56
2023/12/04 05:11:54;;;;;;;11.00;6.70;;;;;;;0.13;100.00;100620.86;109038;1255;72698;-60
2023/12/04 05:14:22;;;;;;;9.10;5.90;;;;;;;0.11;100.00;100618.27;109095;1258;58991;-55
2023/12/04 05:16:49;;;;;;;9.90;6.00;;;;;;;0.08;100.00;100615.23;109135;1254;58911;-55
2023/12/04 05:19:17;;;;;;;9.80;5.40;;;;;;;0.06;100.00;100615.69;109099;1254;73561;-56
2023/12/04 05:21:45;;;;;;;10.80;5.90;;;;;;;0.05;100.00;100630.00;109110;1254;67060;-55
2023/12/04 05:24:12;;;;;;;9.90;6.20;;;;;;;0.03;100.00;100641.70;109208;1254;72762;-55
2023/12/04 05:26:40;;;;;;;11.60;6.40;;;;;;;0.01;100.00;100641.69;109328;1254;58933;-55
2023/12/04 05:29:07;;;;;;;9.20;6.20;;;;;;;0.00;100.00;100646.35;109387;1254;60112;-55
2023/12/04 05:31:35;;;;;;;9.70;5.40;;;;;;;0.01;100.00;100652.45;109347;1254;73422;-55
2023/12/04 05:34:02;;;;;;;8.80;6.00;;;;;;;-0.00;100.00;100658.84;109287;1255;65787;-59
2023/12/04 05:36:30;;;;;;;10.00;6.80;;;;;;;-0.02;100.00;100658.10;109318;1258;72084;-55
2023/12/04 05:38:58;;;;;;;11.10;6.40;;;;;;;-0.03;100.00;100650.16;109362;1254;59067;-55
2023/12/04 05:41:28;;;;;;;11.40;6.70;;;;;;;-0.03;100.00;100662.64;109437;1254;58906;-55
2023/12/04 05:43:55;;;;;;;10.70;6.60;;;;;;;-0.04;100.00;100660.63;109461;1253;74702;-55
2023/12/04 05:46:23;;;;;;;10.60;6.70;;;;;;;-0.05;100.00;100665.30;109333;1257;67249;-55
2023/12/04 05:48:51;;;;;;;11.20;6.10;;;;;;;-0.04;100.00;100662.34;109326;1253;72759;-55
2023/12/04 05:51:18;;;;;;;10.40;6.50;;;;;;;-0.04;100.00;100676.16;109326;1253;60918;-54
2023/12/04 05:53:46;;;;;;;10.20;6.20;;;;;;;-0.06;100.00;100670.48;109336;1253;58912;-55
2023/12/04 05:56:14;;;;;;;8.80;5.50;;;;;;;-0.09;100.00;100672.58;109361;1258;74731;-59
2023/12/04 05:58:41;;;;;;;9.30;5.00;;;;;;;-0.13;100.00;100679.21;109390;1253;67303;-54
2023/12/04 06:01:09;;;;;;;8.30;4.80;;;;;;;-0.18;100.00;100687.40;109380;1253;71412;-54
2023/12/04 06:03:36;;;;;;;9.40;5.10;;;;;;;-0.20;100.00;100690.77;109370;1253;60998;-55
2023/12/04 06:06:04;;;;;;;8.80;5.10;;;;;;;-0.22;100.00;100685.10;109356;1253;59009;-54
2023/12/04 06:08:32;;;;;;;7.60;4.90;;;;;;;-0.25;100.00;100692.63;109347;1252;73443;-55
2023/12/04 06:10:59;;;;;;;8.80;5.30;;;;;;;-0.27;100.00;100698.89;109319;1252;66391;-55
2023/12/04 06:13:27;;;;;;;10.40;5.70;;;;;;;-0.28;100.00;100697.89;109224;1253;72731;-54
2023/12/04 06:15:54;;;;;;;7.30;4.30;;;;;;;-0.27;100.00;100705.40;109374;1253;59724;-54
2023/12/04 06:18:22;;;;;;;9.60;4.90;;;;;;;-0.26;100.00;100715.05;109395;1254;59076;-55
2023/12/04 06:20:53;;;;;;;7.50;4.70;;;;;;;-0.26;100.00;100713.67;109307;1252;73473;-59
2023/12/04 06:23:21;;;;;;;8.10;4.90;;;;;;;-0.26;100.00;100709.27;109385;1254;67091;-54
2023/12/04 06:25:49;;;;;;;7.70;4.80;;;;;;;-0.27;100.00;100710.30;109342;1254;71110;-54
2023/12/04 06:28:17;;;;;;;8.90;5.40;;;;;;;-0.27;100.00;100711.00;109305;1255;60919;-56
2023/12/04 06:30:45;;;;;;;7.10;4.30;;;;;;;-0.28;100.00;100713.45;109339;1253;59041;-56
2023/12/04 06:33:14;;;;;;;7.60;4.60;;;;;;;-0.30;100.00;100718.40;109364;1254;74654;-56
2023/12/04 06:35:42;;;;;;;7.20;4.70;;;;;;;-0.32;100.00;100719.70;109345;1253;64735;-57
2023/12/04 06:38:10;;;;;;;7.40;4.10;;;;;;;-0.32;100.00;100719.05;109321;1253;71446;-56
2023/12/04 06:40:38;;;;;;;6.50;3.80;;;;;;;-0.31;100.00;100721.56;109299;1252;61406;-56
2023/12/04 06:43:07;;;;;;;7.30;4.30;;;;;;;-0.29;100.00;100722.06;109318;1258;60250;-55
2023/12/04 06:45:35;;;;;;;7.00;4.20;;;;;;;-0.26;100.00;100718.83;109412;1254;74702;-55
2023/12/04 06:48:03;;;;;;;6.30;3.70;;;;;;;-0.22;100.00;100720.48;109336;1254;65241;-56
2023/12/04 06:50:31;;;;;;;6.00;3.50;;;;;;;-0.18;100.00;100724.27;109359;1253;71456;-56
2023/12/04 06:52:58;;;;;;;6.50;3.70;;;;;;;-0.15;100.00;100730.59;109313;1253;59659;-58
2023/12/04 06:55:26;;;;;;;7.10;3.80;;;;;;;-0.15;100.00;100730.04;109332;1254;60075;-55
2023/12/04 06:57:53;;;;;;;6.60;3.70;;;;;;;-0.14;100.00;100731.23;109347;1254;72824;-54
2023/12/04 07:00:21;;;;;;;7.10;3.90;;;;;;;-0.15;100.00;100732.94;109351;1253;65542;-54
2023/12/04 07:02:50;;;;;;;6.40;3.90;;;;;;;-0.16;100.00;100730.50;109348;1253;72751;-55
2023/12/04 07:05:19;;;;;;;6.20;3.50;;;;;;;-0.16;100.00;100731.80;109297;1254;59634;-54
2023/12/04 07:07:46;;;;;;;6.60;4.00;;;;;;;-0.15;100.00;100735.52;109344;1252;59038;-54
2023/12/04 07:10:14;;;;;;;7.70;4.30;;;;;;;-0.13;100.00;100737.48;109348;1254;73939;-54
2023/12/04 07:12:43;;;;;;;8.20;4.10;;;;;;;-0.11;100.00;100736.30;109382;1253;65638;-55
2023/12/04 07:15:11;;;;;;;9.20;5.10;;;;;;;-0.09;100.00;100732.71;109349;1254;71521;-53
2023/12/04 07:17:39;;;;;;;6.30;4.10;;;;;;;-0.08;100.00;100730.10;109299;1252;60058;-54
2023/12/04 07:20:08;;;;;;;6.60;3.90;;;;;;;-0.08;100.00;100732.69;109473;1254;59484;-54
2023/12/04 07:22:35;;;;;;;8.50;4.60;;;;;;;-0.07;100.00;100738.23;109374;1253;73791;-54
2023/12/04 07:25:09;;;;;;;7.30;3.60;;;;;;;-0.05;100.00;100748.69;109333;1254;67139;-54
2023/12/04 07:27:37;;;;;;;5.90;3.80;;;;;;;-0.01;100.00;100749.98;109139;1254;72686;-54
2023/12/04 07:30:06;;;;;;;9.60;4.30;;;;;;;0.02;100.00;100743.27;109218;1254;59698;-55
2023/12/04 07:32:35;;;;;;;6.40;3.80;;;;;;;0.05;100.00;100739.31;109212;1253;60131;-53
2023/12/04 07:35:04;;;;;;;6.50;4.00;;;;;;;0.05;100.00;100732.16;109206;1254;74770;-59
2023/12/04 07:37:32;;;;;;;7.30;4.20;;;;;;;0.03;100.00;100733.09;109160;1254;65747;-57
2023/12/04 07:40:00;;;;;;;7.10;4.40;;;;;;;0.03;100.00;100738.45;109188;1254;72779;-57
2023/12/04 07:42:27;;;;;;;6.70;3.90;;;;;;;0.03;100.00;100741.13;109213;1254;60928;-57
2023/12/04 07:44:55;;;;;;;6.30;3.60;;;;;;;0.06;100.00;100747.79;109224;1254;58928;-54
2023/12/04 07:47:23;;;;;;;6.70;3.90;;;;;;;0.07;100.00;100744.77;109136;1257;74824;-54
2023/12/04 07:49:52;;;;;;;6.70;4.40;;;;;;;0.08;100.00;100739.79;109247;1254;67434;-57
2023/12/04 07:52:20;;;;;;;6.60;4.10;;;;;;;0.07;100.00;100738.79;109202;1254;71531;-56
2023/12/04 07:54:48;;;;;;;7.30;4.00;;;;;;;0.08;100.00;100745.08;109168;1254;59030;-57
2023/12/04 07:57:16;;;;;;;6.30;3.80;;;;;;;0.11;100.00;100741.29;109205;1254;60091;-58
2023/12/04 07:59:44;;;;;;;6.90;4.30;;;;;;;0.14;100.00;100741.26;109203;1254;75178;-54
2023/12/04 08:02:11;;;;;;;6.40;3.70;;;;;;;0.15;100.00;100742.93;109187;1254;65910;-54
2023/12/04 08:04:39;;;;;;;7.10;4.60;;;;;;;0.13;100.00;100740.80;109246;1254;71491;-59
2023/12/04 08:07:06;;;;;;;7.10;4.30;;;;;;;0.12;100.00;100744.95;109235;1254;58935;-55
2023/12/04 08:09:34;;;;;;;7.10;4.10;;;;;;;0.13;100.00;100742.02;109143;1258;60542;-61
2023/12/04 08:12:02;;;;;;;7.20;3.80;;;;;;;0.14;100.00;100746.40;109223;1254;74750;-57
2023/12/04 08:14:29;;;;;;;6.90;3.80;;;;;;;0.15;100.00;100745.44;109247;1254;67078;-56
2023/12/04 08:16:57;;;;;;;6.70;4.00;;;;;;;0.17;100.00;100749.27;109206;1254;72789;-56
2023/12/04 08:19:24;;;;;;;7.60;4.50;;;;;;;0.19;100.00;100750.16;109176;1254;58923;-57
2023/12/04 08:21:52;;;;;;;6.90;4.00;;;;;;;0.19;100.00;100746.53;109141;1254;60563;-57
2023/12/04 08:24:21;;;;;;;7.10;4.30;;;;;;;0.19;100.00;100741.27;109331;1253;73715;-57
2023/12/04 08:26:50;;;;;;;6.80;4.30;;;;;;;0.18;100.00;100743.02;109372;1252;66935;-57
2023/12/04 08:29:18;;;;;;;7.00;4.50;;;;;;;0.17;100.00;100747.52;109317;1253;70625;-54
2023/12/04 08:31:45;;;;;;;8.10;4.90;;;;;;;0.17;100.00;100749.41;109241;1254;58927;-55
2023/12/04 08:34:13;;;;;;;7.60;5.10;;;;;;;0.17;100.00;100751.14;109288;1254;60157;-55
2023/12/04 08:36:41;;;;;;;7.30;4.60;;;;;;;0.19;100.00;100751.00;109288;1254;74730;-54
2023/12/04 08:39:13;;;;;;;6.50;4.10;;;;;;;0.21;100.00;100750.50;109280;1254;67559;-54
2023/12/04 08:41:41;;;;;;;6.90;4.10;;;;;;;0.21;100.00;100753.59;109286;1254;72883;-59
2023/12/04 08:44:21;;;;;;;7.20;3.80;;;;;;;0.22;100.00;100752.29;109302;1253;59374;-54
2023/12/04 08:46:48;;;;;;;7.50;4.40;;;;;;;0.26;100.00;100756.88;109288;1253;60081;-55
2023/12/04 08:49:16;;;;;;;7.50;4.20;;;;;;;0.30;100.00;100765.17;109317;1254;74706;-54
2023/12/04 08:51:44;;;;;;;8.20;5.30;;;;;;;0.32;100.00;100767.05;109264;1254;65866;-54
2023/12/04 08:54:11;;;;;;;6.40;4.10;;;;;;;0.34;100.00;100763.16;109321;1253;71529;-56
2023/12/04 08:56:42;;;;;;;6.60;3.70;;;;;;;0.34;100.00;100761.98;109298;1253;59455;-57
2023/12/04 08:59:10;;;;;;;6.30;3.40;;;;;;;0.31;100.00;100758.05;109310;1253;59204;-57
2023/12/04 09:01:37;;;;;;;6.40;3.90;;;;;;;0.29;100.00;100757.83;109268;1254;73835;-59
2023/12/04 09:04:05;;;;;;;7.20;3.90;;;;;;;0.27;100.00;100762.98;109285;1253;65846;-58
2023/12/04 09:06:33;;;;;;;6.20;3.50;;;;;;;0.17;100.00;100768.73;109122;1253;73797;-56
2023/12/04 09:09:04;;;;;;;5.80;3.50;;;;;;;0.16;100.00;100768.77;109301;1253;60133;-57
2023/12/04 09:11:42;;;;;;;5.70;3.60;;;;;;;0.16;100.00;100773.79;109325;1254;60126;-56
2023/12/04 09:14:10;;;;;;;6.90;3.40;;;;;;;0.18;100.00;100772.77;109323;1253;74750;-56
2023/12/04 09:16:38;;;;;;;6.70;3.30;;;;;;;0.18;100.00;100772.23;109400;1253;67792;-57
2023/12/04 09:19:06;;;;;;;7.30;3.20;;;;;;;0.21;100.00;100778.02;109336;1252;70417;-57
2023/12/04 09:21:35;;;;;;;6.10;3.20;;;;;;;0.23;100.00;100783.16;109291;1254;61517;-57
2023/12/04 09:24:03;;;;;;;4.70;2.70;;;;;;;0.29;100.00;100782.82;109361;1253;60062;-57
2023/12/04 09:26:30;;;;;;;5.20;2.70;;;;;;;0.51;100.00;100778.20;109372;1253;74748;-58
2023/12/04 09:28:58;;;;;;;4.40;2.60;;;;;;;0.99;100.00;100773.67;109341;1253;68023;-55
2023/12/04 09:31:26;;;;;;;4.60;2.30;;;;;;;1.56;100.00;100773.16;109314;1253;72722;-60
2023/12/04 09:33:53;;;;;;;5.00;2.40;;;;;;;2.02;100.00;100772.86;109341;1253;59399;-55
2023/12/04 09:36:21;;;;;;;5.40;3.30;;;;;;;2.25;100.00;100764.91;109335;1254;59795;-55
2023/12/04 09:38:49;;;;;;;4.70;2.70;;;;;;;2.32;100.00;100760.98;109395;1254;74769;-58
2023/12/04 09:41:16;;;;;;;4.40;2.00;;;;;;;2.27;100.00;100755.67;109321;1252;65644;-57
2023/12/04 09:43:44;;;;;;;3.90;1.90;;;;;;;2.18;100.00;100747.26;109206;1253;72683;-57
2023/12/04 09:46:12;;;;;;;3.80;2.00;;;;;;;2.09;100.00;100747.13;109320;1253;58968;-58
2023/12/04 09:48:40;;;;;;;4.50;2.50;;;;;;;1.99;100.00;100748.23;109357;1252;59097;-55
2023/12/04 09:51:09;;;;;;;4.90;2.80;;;;;;;1.86;100.00;100749.04;109261;1253;74794;-55
2023/12/04 09:53:37;;;;;;;4.50;2.30;;;;;;;1.73;100.00;100749.33;109342;1253;66226;-55
2023/12/04 09:56:04;;;;;;;5.30;2.80;;;;;;;1.61;100.00;100748.63;109294;1252;72669;-55
2023/12/04 09:58:32;;;;;;;5.50;2.50;;;;;;;1.54;100.00;100744.54;109205;1252;61226;-55
2023/12/04 10:01:00;;;;;;;5.00;2.20;;;;;;;1.54;100.00;100744.92;109302;1253;61174;-58
2023/12/04 10:03:29;;;;;;;5.20;2.40;;;;;;;1.54;100.00;100747.63;109339;1253;74647;-58
2023/12/04 10:05:57;;;;;;;5.80;2.40;;;;;;;1.53;100.00;100742.75;109307;1253;66885;-55
2023/12/04 10:08:25;;;;;;;6.60;2.60;;;;;;;1.51;100.00;100745.10;109363;1253;72637;-55
2023/12/04 10:10:53;;;;;;;5.80;2.60;;;;;;;1.52;100.00;100746.23;109329;1254;63626;-57
2023/12/04 10:13:21;;;;;;;4.10;2.00;;;;;;;1.54;100.00;100746.44;109337;1253;58962;-58
2023/12/04 10:16:09;;;;;;;4.70;2.40;;;;;;;1.51;100.00;100750.80;109357;1253;77626;-57
2023/12/04 10:18:36;;;;;;;4.40;2.20;;;;;;;1.45;100.00;100750.48;109261;1253;68606;-57
2023/12/04 10:21:07;;;;;;;4.20;2.20;;;;;;;1.41;100.00;100751.63;109322;1253;74101;-56
2023/12/04 10:23:44;;;;;;;3.90;2.00;;;;;;;1.36;100.00;100755.25;109372;1252;60350;-56
2023/12/04 10:26:15;;;;;;;3.90;2.00;;;;;;;1.34;100.00;100757.47;109364;1253;60123;-57
2023/12/04 10:29:03;;;;;;;4.70;2.30;;;;;;;1.35;100.00;100754.15;109354;1253;74728;-57
2023/12/04 10:31:34;;;;;;;4.60;2.20;;;;;;;1.35;100.00;100756.86;109320;1253;67646;-56
2023/12/04 10:34:04;;;;;;;3.80;2.00;;;;;;;1.34;100.00;100762.09;109306;1253;73130;-56
2023/12/04 10:36:33;;;;;;;4.90;2.40;;;;;;;1.32;100.00;100762.23;109306;1254;62184;-56
2023/12/04 10:39:04;;;;;;;6.70;3.20;;;;;;;1.28;100.00;100759.94;109332;1253;62208;-61
2023/12/04 10:41:32;;;;;;;5.30;2.90;;;;;;;1.25;100.00;100764.29;109314;1253;73965;-57
2023/12/04 10:44:00;;;;;;;5.70;3.10;;;;;;;1.23;100.00;100765.48;109325;1252;66950;-58
2023/12/04 10:46:40;;;;;;;4.70;2.40;;;;;;;1.26;100.00;100762.69;109343;1253;74826;-57
2023/12/04 10:49:08;;;;;;;4.10;1.90;;;;;;;1.27;100.00;100763.98;109194;1252;59036;-57
2023/12/04 10:51:36;;;;;;;3.90;1.70;;;;;;;1.32;100.00;100764.34;109308;1253;63407;-57
2023/12/04 10:54:05;;;;;;;4.40;2.30;;;;;;;1.36;100.00;100764.89;109357;1253;76587;-57
2023/12/04 10:56:37;;;;;;;4.40;2.00;;;;;;;1.35;100.00;100766.15;109311;1253;66613;-55
2023/12/04 10:59:10;;;;;;;5.30;2.50;;;;;;;1.34;100.00;100767.44;109203;1254;72708;-56
2023/12/04 11:01:38;;;;;;;6.90;3.20;;;;;;;1.30;100.00;100768.92;109305;1253;61330;-56
2023/12/04 11:04:07;;;;;;;7.90;3.90;;;;;;;1.26;100.00;100767.48;109231;1253;62639;-56
2023/12/04 11:06:35;;;;;;;6.70;3.30;;;;;;;1.20;100.00;100769.58;109344;1253;76757;-57
2023/12/04 11:09:05;;;;;;;5.70;2.60;;;;;;;1.21;100.00;100770.89;109269;1252;68812;-55
2023/12/04 11:11:35;;;;;;;4.80;2.40;;;;;;;1.26;100.00;100770.54;109320;1253;74461;-56
2023/12/04 11:14:04;;;;;;;3.90;2.00;;;;;;;1.30;100.00;100769.40;109181;1254;61023;-57
2023/12/04 11:16:43;;;;;;;3.60;1.90;;;;;;;1.33;100.00;100769.23;109396;1253;59107;-56